sensor_id;sensor_type;location;lat;lon;timestamp;temperature;humidity
77039;DHT22;65970;50.476;4.840;2023-05-13T12:53:25;24.70;65.00
77039;DHT22;65970;50.476;4.840;2023-05-13T13:19:11;25.20;51.20
77039;DHT22;65970;50.476;4.840;2023-05-13T14:26:16;23.70;34.10
77039;DHT22;65970;50.476;4.840;2023-05-13T14:36:35;23.30;39.80
77039;DHT22;65970;50.476;4.840;2023-05-13T14:41:39;23.00;40.40
77039;DHT22;65970;50.476;4.840;2023-05-13T14:51:49;22.60;38.00
77039;DHT22;65970;50.476;4.840;2023-05-13T15:02:03;22.30;38.00
77039;DHT22;65970;50.476;4.840;2023-05-13T15:17:25;21.00;37.40
77039;DHT22;65970;50.476;4.840;2023-05-13T15:22:25;20.30;40.20
77039;DHT22;65970;50.476;4.840;2023-05-13T15:27:26;19.90;44.60
77039;DHT22;65970;50.476;4.840;2023-05-13T15:32:27;19.80;45.80
77039;DHT22;65970;50.476;4.840;2023-05-13T16:08:38;18.70;75.90
77039;DHT22;65970;50.476;4.840;2023-05-13T16:13:39;18.60;71.60
77039;DHT22;65970;50.476;4.840;2023-05-13T16:54:52;18.10;59.90
77039;DHT22;65970;50.476;4.840;2023-05-13T17:20:34;17.90;65.00
77039;DHT22;65970;50.476;4.840;2023-05-13T17:25:35;17.90;59.50
77039;DHT22;65970;50.476;4.840;2023-05-13T17:30:35;17.80;62.30
77039;DHT22;65970;50.476;4.840;2023-05-13T17:35:36;17.80;61.20
77039;DHT22;65970;50.476;4.840;2023-05-13T17:40:36;17.70;62.50
77039;DHT22;65970;50.476;4.840;2023-05-13T17:45:37;17.60;71.60
77039;DHT22;65970;50.476;4.840;2023-05-13T17:50:37;17.50;68.90
77039;DHT22;65970;50.476;4.840;2023-05-13T17:55:38;17.50;76.10
77039;DHT22;65970;50.476;4.840;2023-05-13T18:00:38;17.40;69.70
77039;DHT22;65970;50.476;4.840;2023-05-13T18:05:38;17.40;65.60
77039;DHT22;65970;50.476;4.840;2023-05-13T18:10:39;17.30;75.80
77039;DHT22;65970;50.476;4.840;2023-05-13T18:15:39;17.20;80.00
77039;DHT22;65970;50.476;4.840;2023-05-13T18:20:40;17.10;83.30
77039;DHT22;65970;50.476;4.840;2023-05-13T18:25:40;17.10;84.80
77039;DHT22;65970;50.476;4.840;2023-05-13T18:30:41;17.00;97.50
77039;DHT22;65970;50.476;4.840;2023-05-13T18:35:41;16.90;91.20
77039;DHT22;65970;50.476;4.840;2023-05-13T18:40:46;16.90;99.90
77039;DHT22;65970;50.476;4.840;2023-05-13T18:45:51;16.90;99.90
77039;DHT22;65970;50.476;4.840;2023-05-13T18:50:51;16.80;99.90
77039;DHT22;65970;50.476;4.840;2023-05-13T18:55:52;16.80;99.90
77039;DHT22;65970;50.476;4.840;2023-05-13T19:00:52;16.80;99.90
77039;DHT22;65970;50.476;4.840;2023-05-13T19:05:53;16.70;97.70
77039;DHT22;65970;50.476;4.840;2023-05-13T19:10:53;16.60;99.90
77039;DHT22;65970;50.476;4.840;2023-05-13T19:21:04;16.40;99.90
77039;DHT22;65970;50.476;4.840;2023-05-13T19:26:04;16.30;99.90
77039;DHT22;65970;50.476;4.840;2023-05-13T19:31:05;16.30;99.90
77039;DHT22;65970;50.476;4.840;2023-05-13T19:36:05;16.30;99.90
77039;DHT22;65970;50.476;4.840;2023-05-13T19:41:06;16.20;99.90
